< Typhoon 198113 1981 Season Typhoon 198115 >
Typhoon 198114 (SUSAN)
General InformationDetailed Track InformationTrack Information on Google MapsList of All Images || Disaster Info.ResourceGoogle EarthGE AnimationAtom FeedGeoJSON
Detalied Best Track Wind (Time Zone = UTC)
Year Month Day Hour Lat. Long. Wind (kt) Gust (kt) Direc. of Major Storm Axis Radius of Major Storm Axis (nm) Radius of Minor Storm Axis (nm) Direc. of Major Gale Axis Radius of Major Gale Axis (nm) Radius of Minor Gale Axis (nm) Image
1981 8 6 12 21.0 164.0 0 0 - - - - - - Image
1981 8 6 18 21.3 164.2 0 0 - - - - - - Image
1981 8 7 00 21.5 164.4 0 0 - - - - - - Image
1981 8 7 06 21.7 164.6 0 0 - - - - - - Image
1981 8 7 12 22.0 164.8 0 0 - - - - - - Image
1981 8 7 18 22.3 165.1 0 0 - - - - - - Image
1981 8 8 00 22.6 165.4 40 0 - - - symmetric 150 150 Image
1981 8 8 06 23.9 165.4 40 0 - - - symmetric 150 150 Image
1981 8 8 12 25.2 165.0 50 0 - - - symmetric 200 200 Image
1981 8 8 18 26.6 164.7 50 0 - - - symmetric 200 200 Image
1981 8 9 00 28.0 164.4 50 0 - - - NE 200 150 Image
1981 8 9 06 29.1 164.0 50 0 - - - NE 200 150 Image
1981 8 9 12 30.0 163.2 50 0 - - - NE 200 150 Image
1981 8 9 18 30.7 162.3 50 0 - - - NE 200 150 Image
1981 8 10 00 31.2 161.4 55 0 symmetric 60 60 NE 300 200 Image
1981 8 10 06 31.6 161.3 60 0 symmetric 60 60 NE 300 200 Image
1981 8 10 12 32.1 161.3 60 0 symmetric 60 60 NE 300 200 Image
1981 8 10 18 32.4 161.0 55 0 symmetric 50 50 NE 300 150 Image
1981 8 11 00 32.6 160.0 50 0 - - - NE 300 200 Image
1981 8 11 06 33.0 159.8 50 0 - - - NE 250 200 Image
1981 8 11 12 33.5 159.3 50 0 - - - NE 250 200 Image
1981 8 11 18 34.0 158.2 50 0 - - - NE 250 200 Image
1981 8 12 00 34.6 157.0 45 0 - - - NE 250 175 Image
1981 8 12 06 35.0 156.2 45 0 - - - NE 250 150 Image
1981 8 12 12 35.5 155.5 35 0 - - - NE 250 150 Image
1981 8 12 18 36.0 155.0 35 0 - - - NE 250 150 Image
1981 8 13 00 36.7 154.7 0 0 - - - - - - Image
1981 8 13 06 37.3 154.3 0 0 - - - - - - Image
1981 8 13 12 38.2 154.0 0 0 - - - - - - Image
1981 8 13 18 39.5 153.6 0 0 - - - - - - Image
1981 8 14 00 41.0 153.2 0 0 - - - - - - Image
1981 8 14 06 42.5 154.0 0 0 - - - - - - Image
1981 8 14 12 44.0 156.0 0 0 - - - - - - Image
1981 8 14 18 45.5 158.5 0 0 - - - - - - Image
1981 8 15 00 47.5 161.5 0 0 - - - - - - Image
Japan Meteorological Agency Best Track Data | Correction Date : 1992-10-21
< Typhoon 198113 1981 Season Typhoon 198115 >

Help